createdAt,value
2022-09-24T00:00:17.427Z,9.40
2022-09-24T00:02:47.558Z,9.65
2022-09-24T00:05:16.758Z,10.20
2022-09-24T00:07:46.057Z,10.55
2022-09-24T00:10:14.962Z,11.07
2022-09-24T00:12:43.489Z,10.48
2022-09-24T00:15:13.664Z,11.77
2022-09-24T00:17:42.221Z,11.82
2022-09-24T00:20:13.034Z,10.63
2022-09-24T00:22:41.563Z,10.45
2022-09-24T00:25:28.020Z,8.43
2022-09-24T00:27:57.222Z,10.45
2022-09-24T00:30:28.972Z,8.45
2022-09-24T00:32:57.734Z,7.38
2022-09-24T00:35:32.428Z,9.05
2022-09-24T00:38:01.057Z,7.93
2022-09-24T00:40:30.855Z,8.20
2022-09-24T00:42:59.458Z,6.80
2022-09-24T00:45:29.780Z,7.22
2022-09-24T00:47:58.905Z,9.43
2022-09-24T00:50:34.050Z,8.50
2022-09-24T00:53:05.138Z,9.98
2022-09-24T00:55:35.691Z,8.20
2022-09-24T00:58:06.149Z,7.80
2022-09-24T01:00:39.445Z,8.45
2022-09-24T01:03:09.549Z,10.27
2022-09-24T01:05:40.744Z,10.23
2022-09-24T01:08:10.344Z,9.15
2022-09-24T01:10:52.489Z,9.32
2022-09-24T01:13:31.549Z,10.35
2022-09-24T01:16:05.737Z,8.60
2022-09-24T01:18:38.452Z,8.90
2022-09-24T01:21:22.717Z,8.25
2022-09-24T01:24:10.945Z,8.23
2022-09-24T01:26:48.054Z,8.18
2022-09-24T01:29:32.249Z,12.20
2022-09-24T01:34:38.774Z,8.40
2022-09-24T01:37:07.384Z,10.05
2022-09-24T01:39:38.505Z,9.30
2022-09-24T01:42:08.107Z,11.55
2022-09-24T01:44:39.157Z,11.32
2022-09-24T01:47:08.915Z,11.13
2022-09-24T01:49:37.954Z,11.43
2022-09-24T01:52:11.790Z,8.52
2022-09-24T01:57:12.238Z,9.18
2022-09-24T01:59:44.588Z,6.90
2022-09-24T02:02:14.762Z,8.20
2022-09-24T02:04:45.610Z,8.80
2022-09-24T02:07:16.587Z,9.93
2022-09-24T02:09:46.001Z,8.55
2022-09-24T02:12:18.509Z,7.90
2022-09-24T02:14:51.065Z,9.27
2022-09-24T02:17:19.952Z,10.07
2022-09-24T02:19:52.215Z,7.78
2022-09-24T02:22:21.892Z,9.02
2022-09-24T02:24:52.169Z,8.00
2022-09-24T02:27:22.080Z,8.00
2022-09-24T02:29:52.943Z,8.93
2022-09-24T02:32:22.170Z,8.52
2022-09-24T02:34:53.250Z,7.15
2022-09-24T02:37:25.155Z,8.15
2022-09-24T02:39:53.975Z,9.25
2022-09-24T02:42:24.634Z,7.90
2022-09-24T02:44:57.629Z,7.60
2022-09-24T02:47:29.526Z,8.30
2022-09-24T02:49:58.575Z,8.45
2022-09-24T02:52:27.604Z,8.38
2022-09-24T02:54:56.776Z,7.18
2022-09-24T02:57:25.706Z,8.35
2022-09-24T02:59:55.899Z,7.78
2022-09-24T03:02:25.686Z,8.93
2022-09-24T03:05:02.825Z,7.65
2022-09-24T03:07:32.445Z,8.57
2022-09-24T03:10:01.615Z,8.25
2022-09-24T03:12:33.475Z,9.25
2022-09-24T03:15:03.774Z,6.68
2022-09-24T03:17:32.509Z,7.93
2022-09-24T03:20:01.230Z,7.60
2022-09-24T03:22:31.911Z,8.20
2022-09-24T03:25:00.889Z,8.93
2022-09-24T03:27:29.802Z,9.77
2022-09-24T03:30:16.293Z,8.82
2022-09-24T03:32:46.383Z,8.65
2022-09-24T03:35:15.952Z,9.60
2022-09-24T03:37:49.086Z,7.82
2022-09-24T03:40:20.228Z,9.85
2022-09-24T03:42:49.079Z,8.95
2022-09-24T03:45:18.900Z,9.60
2022-09-24T03:47:49.257Z,7.88
2022-09-24T03:50:19.275Z,9.35
2022-09-24T03:52:47.770Z,10.77
2022-09-24T03:55:16.363Z,9.23
2022-09-24T03:57:45.156Z,9.98
2022-09-24T04:00:13.902Z,10.98
2022-09-24T04:02:43.110Z,8.32
2022-09-24T04:05:13.431Z,8.40
2022-09-24T04:07:42.768Z,10.10
2022-09-24T04:10:11.745Z,8.65
2022-09-24T04:12:40.694Z,8.50
2022-09-24T04:15:10.011Z,9.18
2022-09-24T04:17:38.813Z,8.05
2022-09-24T04:20:08.230Z,9.02
2022-09-24T04:22:39.366Z,11.10
2022-09-24T04:25:14.034Z,8.75
2022-09-24T04:27:43.581Z,7.90
2022-09-24T04:30:13.640Z,10.23
2022-09-24T04:32:42.595Z,11.00
2022-09-24T04:35:11.727Z,14.23
2022-09-24T04:37:42.909Z,10.65
2022-09-24T04:40:12.952Z,10.15
2022-09-24T04:42:42.081Z,8.40
2022-09-24T04:45:11.952Z,11.50
2022-09-24T04:47:43.656Z,8.13
2022-09-24T04:50:13.512Z,8.20
2022-09-24T04:52:47.511Z,8.38
2022-09-24T04:57:46.299Z,7.97
2022-09-24T05:00:17.616Z,8.38
2022-09-24T05:02:49.869Z,7.68
2022-09-24T05:05:18.670Z,8.32
2022-09-24T05:07:49.651Z,7.78
2022-09-24T05:10:18.444Z,8.05
2022-09-24T05:12:47.005Z,10.10
2022-09-24T05:15:15.854Z,11.43
2022-09-24T05:17:49.715Z,8.02
2022-09-24T05:22:49.652Z,9.18
2022-09-24T05:25:19.139Z,8.55
2022-09-24T05:27:46.901Z,9.93
2022-09-24T05:30:19.243Z,9.55
2022-09-24T05:32:49.692Z,12.85
2022-09-24T05:35:18.957Z,9.48
2022-09-24T05:37:50.236Z,11.00
2022-09-24T05:40:36.557Z,23.67
2022-09-24T05:43:05.922Z,18.80
2022-09-24T05:45:34.899Z,18.67
2022-09-24T05:48:04.042Z,15.77
2022-09-24T05:50:35.295Z,13.05
2022-09-24T05:53:06.033Z,12.63
2022-09-24T05:55:35.789Z,19.45
2022-09-24T05:58:05.150Z,16.02
2022-09-24T06:00:36.887Z,12.20
2022-09-24T06:03:07.960Z,14.20
2022-09-24T06:05:36.942Z,17.77
2022-09-24T06:08:08.220Z,14.82
2022-09-24T06:10:37.782Z,15.35
2022-09-24T06:13:12.352Z,14.00
2022-09-24T06:15:42.842Z,25.35
2022-09-24T06:18:14.764Z,17.85
2022-09-24T06:20:50.838Z,17.05
2022-09-24T06:23:21.620Z,14.93
2022-09-24T06:25:53.724Z,13.95
2022-09-24T06:28:22.630Z,16.67
2022-09-24T06:30:51.231Z,13.85
2022-09-24T06:33:20.455Z,11.25
2022-09-24T06:35:58.269Z,30.00
2022-09-24T06:38:28.755Z,20.08
2022-09-24T06:41:03.849Z,12.20
2022-09-24T06:43:35.415Z,12.40
2022-09-24T06:46:05.129Z,23.88
2022-09-24T06:48:34.426Z,13.38
2022-09-24T06:51:03.508Z,13.73
2022-09-24T06:53:33.519Z,11.27
2022-09-24T06:56:03.652Z,13.93
2022-09-24T06:58:32.318Z,11.77
2022-09-24T07:01:02.598Z,11.15
2022-09-24T07:03:32.648Z,11.52
2022-09-24T07:06:02.550Z,11.85
2022-09-24T07:08:31.531Z,11.18
2022-09-24T07:11:01.732Z,14.32
2022-09-24T07:13:30.500Z,12.63
2022-09-24T07:16:02.621Z,11.70
2022-09-24T07:18:31.692Z,11.98
2022-09-24T07:21:00.687Z,13.07
2022-09-24T07:23:29.526Z,10.93
2022-09-24T07:25:59.281Z,11.65
2022-09-24T07:28:29.348Z,10.50
2022-09-24T07:30:58.834Z,11.18
2022-09-24T07:33:27.454Z,10.38
2022-09-24T07:35:57.844Z,9.18
2022-09-24T07:38:27.579Z,9.35
2022-09-24T07:40:59.654Z,10.13
2022-09-24T07:43:33.676Z,10.15
2022-09-24T07:46:04.688Z,11.60
2022-09-24T07:48:35.781Z,12.15
2022-09-24T07:51:06.211Z,10.50
2022-09-24T07:53:35.153Z,12.07
2022-09-24T07:56:04.360Z,13.10
2022-09-24T07:58:35.937Z,12.55
2022-09-24T08:01:07.636Z,11.77
2022-09-24T08:03:37.924Z,11.10
2022-09-24T08:06:07.294Z,12.88
2022-09-24T08:08:39.155Z,11.75
2022-09-24T08:11:12.252Z,12.18
2022-09-24T08:13:42.506Z,11.55
2022-09-24T08:16:14.495Z,13.35
2022-09-24T08:18:59.720Z,12.82
2022-09-24T08:21:29.229Z,14.82
2022-09-24T08:24:07.657Z,16.20
2022-09-24T08:26:38.378Z,14.15
2022-09-24T08:29:09.853Z,16.98
2022-09-24T08:31:42.208Z,16.48
2022-09-24T08:34:24.731Z,15.65
2022-09-24T08:37:03.789Z,14.15
2022-09-24T08:39:34.198Z,14.75
2022-09-24T08:42:17.785Z,18.02
2022-09-24T08:45:16.878Z,13.23
2022-09-24T08:48:01.354Z,13.15
2022-09-24T08:50:48.315Z,15.82
2022-09-24T08:53:19.280Z,12.85
2022-09-24T08:56:13.166Z,14.65
2022-09-24T08:59:08.862Z,15.40
2022-09-24T09:02:07.584Z,13.05
2022-09-24T09:05:19.554Z,12.95
2022-09-24T09:08:27.298Z,14.13
2022-09-24T09:11:20.889Z,12.20
2022-09-24T09:14:35.897Z,11.73
2022-09-24T09:18:00.974Z,12.90
2022-09-24T09:20:58.172Z,12.10
2022-09-24T09:24:02.439Z,11.82
2022-09-24T09:30:35.968Z,12.40
2022-09-24T09:33:50.971Z,10.90
2022-09-24T09:39:27.627Z,14.95
2022-09-24T09:45:21.977Z,12.73
2022-09-24T09:51:04.231Z,12.18
2022-09-24T09:53:36.544Z,12.02
2022-09-24T09:56:26.632Z,12.65
2022-09-24T09:59:15.182Z,10.60
2022-09-24T10:02:04.463Z,10.38
2022-09-24T10:04:52.239Z,11.25
2022-09-24T10:10:58.181Z,11.25
2022-09-24T10:13:29.271Z,11.05
2022-09-24T10:16:01.723Z,10.52
2022-09-24T10:18:32.927Z,10.38
2022-09-24T10:21:06.827Z,10.68
2022-09-24T10:23:41.392Z,9.68
2022-09-24T10:26:17.129Z,11.20
2022-09-24T10:29:08.629Z,10.13
2022-09-24T10:31:54.506Z,10.30
2022-09-24T10:34:32.238Z,10.95
2022-09-24T10:37:02.039Z,10.43
2022-09-24T10:39:30.958Z,13.25
2022-09-24T10:42:00.721Z,9.25
2022-09-24T10:44:52.586Z,10.95
2022-09-24T10:47:42.670Z,11.38
2022-09-24T10:50:28.436Z,11.57
2022-09-24T10:56:10.846Z,10.77
2022-09-24T10:59:07.959Z,9.75
2022-09-24T11:01:50.789Z,11.45
2022-09-24T11:08:55.571Z,10.05
2022-09-24T11:13:01.978Z,10.70
2022-09-24T11:15:22.274Z,9.20
2022-09-24T11:22:04.950Z,9.50
2022-09-24T11:38:50.392Z,9.50
2022-09-24T11:41:46.284Z,9.60
2022-09-24T11:44:22.568Z,10.73
2022-09-24T11:51:00.182Z,8.35
2022-09-24T11:54:02.610Z,8.13
2022-09-24T11:59:54.101Z,10.00
2022-09-24T12:02:37.493Z,8.07
2022-09-24T12:05:16.047Z,7.50
2022-09-24T12:08:13.804Z,8.75
2022-09-24T12:11:15.994Z,9.27
2022-09-24T12:14:21.832Z,7.10
2022-09-24T12:17:16.177Z,8.45
2022-09-24T12:19:54.481Z,13.30
2022-09-24T12:22:46.691Z,6.93
2022-09-24T12:25:33.187Z,7.47
2022-09-24T12:28:44.431Z,6.65
2022-09-24T12:31:42.227Z,9.98
2022-09-24T12:41:51.549Z,6.28
2022-09-24T12:44:54.087Z,5.85
2022-09-24T12:48:12.943Z,5.75
2022-09-24T12:50:49.716Z,5.90
2022-09-24T12:57:26.804Z,5.95
2022-09-24T13:04:07.920Z,5.70
2022-09-24T13:10:15.782Z,8.90
2022-09-24T13:12:56.012Z,8.23
2022-09-24T13:16:00.371Z,5.25
2022-09-24T13:25:40.044Z,8.30
2022-09-24T13:32:54.953Z,6.35
2022-09-24T13:35:51.894Z,6.68
2022-09-24T13:38:43.099Z,7.65
2022-09-24T13:42:09.112Z,8.63
2022-09-24T13:49:31.259Z,6.35
2022-09-24T13:52:23.872Z,5.43
2022-09-24T14:04:29.506Z,6.65
2022-09-24T14:13:29.679Z,6.47
2022-09-24T14:16:02.927Z,7.82
2022-09-24T14:21:13.432Z,6.95
2022-09-24T14:23:45.059Z,7.55
2022-09-24T14:26:22.691Z,6.65
2022-09-24T14:28:53.486Z,6.25
2022-09-24T14:31:27.805Z,6.38
2022-09-24T14:34:04.764Z,7.20
2022-09-24T14:36:43.338Z,6.50
2022-09-24T14:39:18.072Z,6.90
2022-09-24T14:41:50.053Z,5.53
2022-09-24T14:44:34.733Z,7.55
2022-09-24T14:47:07.418Z,5.57
2022-09-24T14:49:45.643Z,6.40
2022-09-24T14:52:32.906Z,5.95
2022-09-24T14:55:23.502Z,9.45
2022-09-24T14:57:57.763Z,5.47
2022-09-24T15:00:44.301Z,6.88
2022-09-24T15:03:21.069Z,6.25
2022-09-24T15:05:54.057Z,6.88
2022-09-24T15:08:29.005Z,8.63
2022-09-24T15:11:09.712Z,7.03
2022-09-24T15:13:45.755Z,7.25
2022-09-24T15:16:24.738Z,6.65
2022-09-24T15:19:21.651Z,7.18
2022-09-24T15:21:58.546Z,7.05
2022-09-24T15:24:41.999Z,6.35
2022-09-24T15:27:36.161Z,5.85
2022-09-24T15:32:47.710Z,7.47
2022-09-24T15:35:20.191Z,6.75
2022-09-24T15:37:56.338Z,8.02
2022-09-24T15:40:33.554Z,8.43
2022-09-24T15:43:05.390Z,8.85
2022-09-24T15:45:43.207Z,10.00
2022-09-24T15:48:19.367Z,5.55
2022-09-24T15:51:05.853Z,5.85
2022-09-24T15:53:41.853Z,5.90
2022-09-24T15:56:13.852Z,7.80
2022-09-24T16:01:37.720Z,5.60
2022-09-24T16:04:06.322Z,7.80
2022-09-24T16:06:35.166Z,10.05
2022-09-24T16:09:11.813Z,5.20
2022-09-24T16:11:44.829Z,10.35
2022-09-24T16:14:17.540Z,10.20
2022-09-24T16:16:57.595Z,6.33
2022-09-24T16:19:33.250Z,7.13
2022-09-24T16:22:04.205Z,9.40
2022-09-24T16:24:38.559Z,9.32
2022-09-24T16:27:19.869Z,8.18
2022-09-24T16:29:52.521Z,7.55
2022-09-24T16:32:26.966Z,10.40
2022-09-24T16:34:58.160Z,6.68
2022-09-24T16:37:29.843Z,8.55
2022-09-24T16:39:59.966Z,9.07
2022-09-24T16:42:47.716Z,8.90
2022-09-24T16:45:25.601Z,9.73
2022-09-24T16:48:00.323Z,7.32
2022-09-24T16:50:37.506Z,7.22
2022-09-24T16:53:09.417Z,5.85
2022-09-24T16:55:54.703Z,6.95
2022-09-24T16:58:44.731Z,6.65
2022-09-24T17:01:20.985Z,6.25
2022-09-24T17:04:06.731Z,5.63
2022-09-24T17:06:39.707Z,5.18
2022-09-24T17:09:25.714Z,5.35
2022-09-24T17:12:02.841Z,6.25
2022-09-24T17:14:39.863Z,7.68
2022-09-24T17:17:15.562Z,5.28
2022-09-24T17:19:44.544Z,4.28
2022-09-24T17:22:15.730Z,5.28
2022-09-24T17:24:53.311Z,5.47
2022-09-24T17:27:27.544Z,5.32
2022-09-24T17:29:58.334Z,6.05
2022-09-24T17:32:35.534Z,4.45
2022-09-24T17:35:07.263Z,6.90
2022-09-24T17:37:36.325Z,5.20
2022-09-24T17:40:12.411Z,5.47
2022-09-24T17:42:46.030Z,5.97
2022-09-24T17:45:15.745Z,4.20
2022-09-24T17:48:02.920Z,4.47
2022-09-24T17:50:34.126Z,3.72
2022-09-24T17:53:05.676Z,6.93
2022-09-24T17:55:34.514Z,4.63
2022-09-24T17:58:03.106Z,5.03
2022-09-24T18:00:33.241Z,4.90
2022-09-24T18:03:06.737Z,3.97
2022-09-24T18:05:35.608Z,4.47
2022-09-24T18:08:07.111Z,5.00
2022-09-24T18:10:40.885Z,4.45
2022-09-24T18:15:45.471Z,5.38
2022-09-24T18:18:22.299Z,5.45
2022-09-24T18:20:56.253Z,4.63
2022-09-24T18:23:32.670Z,6.82
2022-09-24T18:26:10.769Z,6.45
2022-09-24T18:28:40.703Z,6.75
2022-09-24T18:31:17.755Z,6.28
2022-09-24T18:33:48.996Z,6.35
2022-09-24T18:36:19.110Z,5.93
2022-09-24T18:38:51.098Z,8.40
2022-09-24T18:41:21.323Z,6.85
2022-09-24T18:43:52.285Z,7.72
2022-09-24T18:46:21.659Z,8.35
2022-09-24T18:48:55.141Z,8.10
2022-09-24T18:51:24.947Z,8.00
2022-09-24T18:53:57.216Z,8.82
2022-09-24T18:56:30.637Z,14.35
2022-09-24T18:59:00.464Z,17.48
2022-09-24T19:01:30.910Z,22.40
2022-09-24T19:04:02.018Z,17.92
2022-09-24T19:06:31.064Z,19.85
2022-09-24T19:09:02.168Z,18.55
2022-09-24T19:11:31.602Z,15.18
2022-09-24T19:14:02.865Z,15.25
2022-09-24T19:16:33.630Z,13.40
2022-09-24T19:19:03.971Z,13.85
2022-09-24T19:21:32.677Z,10.60
2022-09-24T19:24:03.085Z,13.73
2022-09-24T19:26:32.198Z,12.07
2022-09-24T19:29:00.923Z,11.93
2022-09-24T19:31:30.810Z,9.15
2022-09-24T19:34:03.043Z,10.40
2022-09-24T19:36:37.416Z,10.07
2022-09-24T19:39:13.073Z,10.75
2022-09-24T19:41:41.871Z,12.63
2022-09-24T19:44:11.855Z,12.52
2022-09-24T19:46:41.245Z,14.75
2022-09-24T19:49:11.481Z,13.57
2022-09-24T19:51:46.323Z,9.77
2022-09-24T19:54:16.228Z,9.93
2022-09-24T19:56:47.211Z,10.88
2022-09-24T19:59:16.719Z,10.75
2022-09-24T20:01:48.820Z,10.80
2022-09-24T20:04:17.484Z,9.18
2022-09-24T20:06:49.241Z,11.07
2022-09-24T20:09:17.815Z,13.02
2022-09-24T20:11:46.545Z,11.88
2022-09-24T20:14:15.363Z,12.25
2022-09-24T20:16:47.284Z,12.05
2022-09-24T20:19:16.753Z,13.18
2022-09-24T20:21:47.286Z,10.82
2022-09-24T20:24:22.621Z,9.77
2022-09-24T20:27:17.000Z,9.10
2022-09-24T20:32:19.922Z,11.20
2022-09-24T20:34:52.898Z,9.38
2022-09-24T20:37:21.391Z,11.48
2022-09-24T20:39:56.123Z,11.65
2022-09-24T20:42:25.054Z,10.18
2022-09-24T20:45:03.768Z,12.13
2022-09-24T20:47:37.063Z,10.57
2022-09-24T20:50:10.081Z,8.88
2022-09-24T20:52:40.248Z,10.40
2022-09-24T20:55:12.607Z,11.10
2022-09-24T20:57:50.735Z,11.63
2022-09-24T21:00:19.512Z,8.05
2022-09-24T21:02:51.161Z,9.48
2022-09-24T21:05:24.695Z,9.30
2022-09-24T21:07:53.270Z,9.07
2022-09-24T21:10:23.279Z,9.30
2022-09-24T21:12:51.937Z,9.73
2022-09-24T21:15:20.734Z,10.23
2022-09-24T21:18:18.279Z,10.70
2022-09-24T21:20:45.624Z,12.83
2022-09-24T21:23:19.401Z,10.20
2022-09-24T21:28:25.026Z,14.77
2022-09-24T21:31:03.824Z,12.43
2022-09-24T21:33:32.947Z,13.43
2022-09-24T21:36:06.474Z,12.95
2022-09-24T21:38:40.008Z,13.25
2022-09-24T21:41:09.061Z,11.95
2022-09-24T21:43:41.927Z,11.23
2022-09-24T21:46:12.123Z,11.13
2022-09-24T21:48:40.724Z,11.57
2022-09-24T21:51:09.993Z,11.40
2022-09-24T21:53:40.074Z,12.25
2022-09-24T21:56:09.079Z,13.07
2022-09-24T21:58:39.824Z,10.80
2022-09-24T22:01:09.536Z,10.45
2022-09-24T22:03:42.151Z,11.82
2022-09-24T22:06:11.058Z,11.70
2022-09-24T22:08:39.534Z,10.30
2022-09-24T22:11:09.360Z,11.45
2022-09-24T22:13:39.667Z,12.10
2022-09-24T22:16:08.950Z,11.27
2022-09-24T22:18:38.320Z,11.07
2022-09-24T22:21:08.292Z,11.68
2022-09-24T22:23:36.947Z,12.18
2022-09-24T22:26:05.760Z,13.68
2022-09-24T22:28:34.155Z,10.55
2022-09-24T22:31:06.599Z,11.18
2022-09-24T22:33:52.787Z,11.15
2022-09-24T22:36:21.317Z,11.25
2022-09-24T22:38:49.817Z,11.27
2022-09-24T22:41:18.366Z,12.75
2022-09-24T22:43:47.117Z,13.20
2022-09-24T22:46:17.293Z,10.85
2022-09-24T22:48:47.337Z,11.07
2022-09-24T22:51:16.264Z,12.35
2022-09-24T22:53:44.718Z,12.07
2022-09-24T22:56:13.838Z,12.18
2022-09-24T22:58:44.900Z,11.55
2022-09-24T23:01:15.255Z,11.57
2022-09-24T23:03:46.326Z,11.40
2022-09-24T23:06:14.828Z,10.63
2022-09-24T23:08:46.566Z,10.90
2022-09-24T23:11:15.966Z,10.48
2022-09-24T23:13:45.392Z,12.77
2022-09-24T23:16:15.020Z,10.88
2022-09-24T23:18:45.696Z,11.48
2022-09-24T23:21:15.833Z,9.65
2022-09-24T23:23:44.433Z,9.75
2022-09-24T23:26:16.387Z,9.18
2022-09-24T23:28:45.907Z,9.10
2022-09-24T23:31:15.144Z,16.25
2022-09-24T23:33:45.331Z,15.00
2022-09-24T23:36:14.592Z,12.25
2022-09-24T23:38:43.487Z,12.85
2022-09-24T23:41:12.551Z,15.02
2022-09-24T23:43:41.413Z,15.70
2022-09-24T23:46:10.212Z,18.35
2022-09-24T23:48:39.175Z,14.82
2022-09-24T23:51:09.545Z,13.02
2022-09-24T23:53:38.140Z,10.40
2022-09-24T23:56:08.005Z,11.02
2022-09-24T23:58:36.737Z,10.75
